createdAt,value
2019-01-18T00:00:49.961Z,37.27
2019-01-18T00:03:21.577Z,33.90
2019-01-18T00:05:53.799Z,29.17
2019-01-18T00:08:25.308Z,33.27
2019-01-18T00:10:57.004Z,36.33
2019-01-18T00:13:28.804Z,40.47
2019-01-18T00:16:00.831Z,31.07
2019-01-18T00:18:33.059Z,35.33
2019-01-18T00:21:07.449Z,34.20
2019-01-18T00:23:39.694Z,32.07
2019-01-18T00:26:11.303Z,34.73
2019-01-18T00:28:43.285Z,36.30
2019-01-18T00:31:15.118Z,35.60
2019-01-18T00:33:47.038Z,29.77
2019-01-18T00:36:19.275Z,36.67
2019-01-18T00:38:51.033Z,37.07
2019-01-18T00:41:23.046Z,32.33
2019-01-18T00:43:55.481Z,31.83
2019-01-18T00:46:27.717Z,33.33
2019-01-18T00:48:59.801Z,31.37
2019-01-18T00:51:31.789Z,40.53
2019-01-18T00:54:03.609Z,33.47
2019-01-18T00:56:35.403Z,34.63
2019-01-18T00:59:07.203Z,40.37
2019-01-18T01:01:39.008Z,36.83
2019-01-18T01:04:10.841Z,42.23
2019-01-18T01:06:42.389Z,40.20
2019-01-18T01:09:14.043Z,35.50
2019-01-18T01:11:45.757Z,37.90
2019-01-18T01:14:17.385Z,36.27
2019-01-18T01:16:49.078Z,43.80
2019-01-18T01:19:20.663Z,42.77
2019-01-18T01:21:52.267Z,40.47
2019-01-18T01:24:23.936Z,42.30
2019-01-18T01:26:55.563Z,37.50
2019-01-18T01:29:27.428Z,37.53
2019-01-18T01:31:59.040Z,40.67
2019-01-18T01:34:30.656Z,32.17
2019-01-18T01:37:02.306Z,40.20
2019-01-18T01:39:34.239Z,36.77
2019-01-18T01:42:06.148Z,31.27
2019-01-18T01:44:37.675Z,32.33
2019-01-18T01:47:09.478Z,30.07
2019-01-18T01:49:41.158Z,29.80
2019-01-18T01:52:12.898Z,24.93
2019-01-18T01:54:44.519Z,33.70
2019-01-18T01:57:16.227Z,26.57
2019-01-18T01:59:49.907Z,26.37
2019-01-18T02:02:20.904Z,21.80
2019-01-18T02:04:52.449Z,23.93
2019-01-18T02:07:24.689Z,20.50
2019-01-18T02:09:56.212Z,20.73
2019-01-18T02:12:27.948Z,24.67
2019-01-18T02:14:59.663Z,22.80
2019-01-18T02:17:31.340Z,21.87
2019-01-18T02:20:02.866Z,24.60
2019-01-18T02:22:34.479Z,26.77
2019-01-18T02:25:06.295Z,24.93
2019-01-18T02:27:37.927Z,22.20
2019-01-18T02:30:13.984Z,20.87
2019-01-18T02:32:45.674Z,16.33
2019-01-18T02:35:17.560Z,18.20
2019-01-18T02:37:49.233Z,15.67
2019-01-18T02:40:21.073Z,20.97
2019-01-18T02:42:52.905Z,16.70
2019-01-18T02:45:25.357Z,13.07
2019-01-18T02:47:57.076Z,11.30
2019-01-18T02:50:28.849Z,12.03
2019-01-18T02:53:00.322Z,13.63
2019-01-18T02:55:32.029Z,9.53
2019-01-18T02:58:03.746Z,14.77
2019-01-18T03:00:35.290Z,10.10
2019-01-18T03:03:07.297Z,11.70
2019-01-18T03:05:38.883Z,9.60
2019-01-18T03:08:10.450Z,12.20
2019-01-18T03:10:42.090Z,10.23
2019-01-18T03:13:13.684Z,7.10
2019-01-18T03:15:45.277Z,11.50
2019-01-18T03:18:16.813Z,8.70
2019-01-18T03:20:48.503Z,13.10
2019-01-18T03:23:20.170Z,9.27
2019-01-18T03:25:52.071Z,11.87
2019-01-18T03:28:24.420Z,9.60
2019-01-18T03:30:56.329Z,10.47
2019-01-18T03:33:28.655Z,13.33
2019-01-18T03:36:00.255Z,9.17
2019-01-18T03:38:32.546Z,16.77
2019-01-18T03:41:04.795Z,11.97
2019-01-18T03:43:36.439Z,14.47
2019-01-18T03:46:08.245Z,10.33
2019-01-18T03:48:39.722Z,12.23
2019-01-18T03:51:11.242Z,7.90
2019-01-18T03:53:42.904Z,15.30
2019-01-18T03:56:14.703Z,12.03
2019-01-18T03:58:46.255Z,13.77
2019-01-18T04:01:17.978Z,14.03
2019-01-18T04:03:49.573Z,12.20
2019-01-18T04:06:21.336Z,17.80
2019-01-18T04:08:52.891Z,16.03
2019-01-18T04:11:24.659Z,9.87
2019-01-18T04:13:56.714Z,11.47
2019-01-18T04:16:28.612Z,13.13
2019-01-18T04:19:00.181Z,16.23
2019-01-18T04:21:31.741Z,8.50
2019-01-18T04:24:03.607Z,12.33
2019-01-18T04:26:35.208Z,14.83
2019-01-18T04:29:06.995Z,13.87
2019-01-18T04:31:38.608Z,14.33
2019-01-18T04:34:10.198Z,18.83
2019-01-18T04:36:41.953Z,15.80
2019-01-18T04:39:13.526Z,11.63
2019-01-18T04:41:45.648Z,15.57
2019-01-18T04:44:17.255Z,10.87
2019-01-18T04:46:48.851Z,10.83
2019-01-18T04:49:20.575Z,14.80
2019-01-18T04:51:52.156Z,10.47
2019-01-18T04:54:23.673Z,10.20
2019-01-18T04:56:55.285Z,13.33
2019-01-18T04:59:27.067Z,12.77
2019-01-18T05:01:58.838Z,8.47
2019-01-18T05:04:32.022Z,8.67
2019-01-18T05:07:03.625Z,10.40
2019-01-18T05:09:35.244Z,8.20
2019-01-18T05:12:06.851Z,10.90
2019-01-18T05:14:38.376Z,12.70
2019-01-18T05:17:10.308Z,15.20
2019-01-18T05:19:41.985Z,13.10
2019-01-18T05:22:13.688Z,15.73
2019-01-18T05:24:49.546Z,20.13
2019-01-18T05:27:18.914Z,13.27
2019-01-18T05:29:50.761Z,9.60
2019-01-18T05:32:22.669Z,12.63
2019-01-18T05:34:54.271Z,17.87
2019-01-18T05:37:25.886Z,14.07
2019-01-18T05:39:57.571Z,13.43
2019-01-18T05:42:29.037Z,11.07
2019-01-18T05:45:00.985Z,13.27
2019-01-18T05:47:32.745Z,16.00
2019-01-18T05:50:05.315Z,11.33
2019-01-18T05:52:37.208Z,17.37
2019-01-18T05:55:08.932Z,11.23
2019-01-18T05:57:40.786Z,14.90
2019-01-18T06:00:26.939Z,17.10
2019-01-18T06:02:58.808Z,17.57
2019-01-18T06:05:31.988Z,19.07
2019-01-18T06:08:03.637Z,17.70
2019-01-18T06:10:35.282Z,16.53
2019-01-18T06:13:07.237Z,16.37
2019-01-18T06:15:40.479Z,16.53
2019-01-18T06:18:12.507Z,13.47
2019-01-18T06:20:44.279Z,17.03
2019-01-18T06:23:16.953Z,17.33
2019-01-18T06:25:48.666Z,15.47
2019-01-18T06:28:20.544Z,12.60
2019-01-18T06:30:52.335Z,10.87
2019-01-18T06:33:24.048Z,13.77
2019-01-18T06:35:55.942Z,19.40
2019-01-18T06:38:27.809Z,10.80
2019-01-18T06:41:07.813Z,14.20
2019-01-18T06:43:39.507Z,13.00
2019-01-18T06:46:11.206Z,14.60
2019-01-18T06:48:43.434Z,17.53
2019-01-18T06:51:15.363Z,16.50
2019-01-18T06:53:47.251Z,22.63
2019-01-18T06:56:19.058Z,16.20
2019-01-18T06:58:50.892Z,28.30
2019-01-18T07:01:22.634Z,16.97
2019-01-18T07:03:54.313Z,15.17
2019-01-18T07:06:26.467Z,17.37
2019-01-18T07:08:58.375Z,11.93
2019-01-18T07:11:30.926Z,12.73
2019-01-18T07:14:05.808Z,13.93
2019-01-18T07:16:38.506Z,14.23
2019-01-18T07:19:10.509Z,15.97
2019-01-18T07:21:43.474Z,11.93
2019-01-18T07:24:15.218Z,11.90
2019-01-18T07:26:47.184Z,13.13
2019-01-18T07:29:19.156Z,14.63
2019-01-18T07:31:50.805Z,11.53
2019-01-18T07:34:23.109Z,14.03
2019-01-18T07:36:55.339Z,16.50
2019-01-18T07:39:27.295Z,12.07
2019-01-18T07:41:59.009Z,14.93
2019-01-18T07:44:30.810Z,14.43
2019-01-18T07:47:02.974Z,10.40
2019-01-18T07:49:35.030Z,8.77
2019-01-18T07:52:08.882Z,10.23
2019-01-18T07:54:40.881Z,10.47
2019-01-18T07:57:12.712Z,10.97
2019-01-18T07:59:44.833Z,11.77
2019-01-18T08:02:16.928Z,10.17
2019-01-18T08:04:49.138Z,13.37
2019-01-18T08:07:21.228Z,9.23
2019-01-18T08:09:52.915Z,11.37
2019-01-18T08:12:25.278Z,9.87
2019-01-18T08:14:57.393Z,13.00
2019-01-18T08:17:30.444Z,12.27
2019-01-18T08:20:02.767Z,11.40
2019-01-18T08:22:34.680Z,12.10
2019-01-18T08:25:07.740Z,10.47
2019-01-18T08:27:39.447Z,12.13
2019-01-18T08:30:16.758Z,13.03
2019-01-18T08:32:49.198Z,10.80
2019-01-18T08:35:22.704Z,9.90
2019-01-18T08:37:54.607Z,13.57
2019-01-18T08:40:51.450Z,9.83
2019-01-18T08:43:23.198Z,12.47
2019-01-18T08:45:58.580Z,9.67
2019-01-18T08:48:30.764Z,12.57
2019-01-18T08:51:03.896Z,14.50
2019-01-18T08:53:35.634Z,13.17
2019-01-18T08:56:09.124Z,9.17
2019-01-18T08:58:40.860Z,11.30
2019-01-18T09:01:12.709Z,6.60
2019-01-18T09:03:44.527Z,11.10
2019-01-18T09:06:16.348Z,9.90
2019-01-18T09:08:48.395Z,14.37
2019-01-18T09:11:20.878Z,8.77
2019-01-18T09:13:52.666Z,9.27
2019-01-18T09:16:24.642Z,12.03
2019-01-18T09:18:57.110Z,10.63
2019-01-18T09:21:29.651Z,13.73
2019-01-18T09:24:02.410Z,11.37
2019-01-18T09:26:34.746Z,7.20
2019-01-18T09:29:07.042Z,10.67
2019-01-18T09:31:42.425Z,10.07
2019-01-18T09:34:12.634Z,9.03
2019-01-18T09:36:44.399Z,10.93
2019-01-18T09:39:20.645Z,10.13
2019-01-18T09:41:53.711Z,11.73
2019-01-18T09:44:25.619Z,7.93
2019-01-18T09:46:57.484Z,8.73
2019-01-18T09:49:29.223Z,16.17
2019-01-18T09:52:01.466Z,8.10
2019-01-18T09:54:33.470Z,12.17
2019-01-18T09:57:05.781Z,7.83
2019-01-18T09:59:37.582Z,6.93
2019-01-18T10:02:09.838Z,9.80
2019-01-18T10:04:41.707Z,7.40
2019-01-18T10:07:13.700Z,7.57
2019-01-18T10:09:45.705Z,6.30
2019-01-18T10:12:17.694Z,9.63
2019-01-18T10:14:49.741Z,10.50
2019-01-18T10:17:22.045Z,18.17
2019-01-18T10:19:53.552Z,8.93
2019-01-18T10:22:26.299Z,10.33
2019-01-18T10:25:00.248Z,12.03
2019-01-18T10:27:32.499Z,7.53
2019-01-18T10:30:04.287Z,9.97
2019-01-18T10:32:37.079Z,9.50
2019-01-18T10:35:09.033Z,11.03
2019-01-18T10:37:40.727Z,8.10
2019-01-18T10:40:13.746Z,10.00
2019-01-18T10:42:46.581Z,9.13
2019-01-18T10:45:18.649Z,7.03
2019-01-18T10:47:50.956Z,11.40
2019-01-18T10:50:28.831Z,12.27
2019-01-18T10:53:00.637Z,10.27
2019-01-18T10:55:32.505Z,8.40
2019-01-18T10:58:04.428Z,14.33
2019-01-18T11:00:37.507Z,11.00
2019-01-18T11:03:09.307Z,11.13
2019-01-18T11:05:41.433Z,18.30
2019-01-18T11:08:17.360Z,11.40
2019-01-18T11:10:46.666Z,13.60
2019-01-18T11:13:18.366Z,13.60
2019-01-18T11:15:51.576Z,10.13
2019-01-18T11:18:23.986Z,17.57
2019-01-18T11:21:06.305Z,14.40
2019-01-18T11:23:38.210Z,10.33
2019-01-18T11:26:10.190Z,14.50
2019-01-18T11:28:43.232Z,13.67
2019-01-18T11:31:15.231Z,11.23
2019-01-18T11:33:47.120Z,16.40
2019-01-18T11:36:18.991Z,13.43
2019-01-18T11:38:50.753Z,12.97
2019-01-18T11:41:22.571Z,12.67
2019-01-18T11:43:54.553Z,12.30
2019-01-18T11:46:26.395Z,12.10
2019-01-18T11:48:58.333Z,13.93
2019-01-18T11:51:31.212Z,12.07
2019-01-18T11:54:03.185Z,15.73
2019-01-18T11:56:35.623Z,11.57
2019-01-18T11:59:07.558Z,14.13
2019-01-18T12:01:39.707Z,10.53
2019-01-18T12:04:11.626Z,19.93
2019-01-18T12:06:43.793Z,12.40
2019-01-18T12:09:15.768Z,9.93
2019-01-18T12:11:48.367Z,11.87
2019-01-18T12:14:20.189Z,14.63
2019-01-18T12:16:51.969Z,15.20
2019-01-18T12:19:23.846Z,11.57
2019-01-18T12:21:55.505Z,8.90
2019-01-18T12:24:27.332Z,14.77
2019-01-18T12:26:59.394Z,12.60
2019-01-18T12:29:31.931Z,18.10
2019-01-18T12:32:03.739Z,9.67
2019-01-18T12:34:35.764Z,14.67
2019-01-18T12:37:07.608Z,13.53
2019-01-18T12:39:39.463Z,10.00
2019-01-18T12:42:11.377Z,15.23
2019-01-18T12:44:43.561Z,11.53
2019-01-18T12:47:15.968Z,11.43
2019-01-18T12:49:49.248Z,16.23
2019-01-18T12:52:21.239Z,11.87
2019-01-18T12:54:52.859Z,13.53
2019-01-18T12:57:25.119Z,14.47
2019-01-18T12:59:58.518Z,12.50
2019-01-18T13:02:35.298Z,15.33
2019-01-18T13:05:03.812Z,12.47
2019-01-18T13:07:35.594Z,12.03
2019-01-18T13:10:12.198Z,13.90
2019-01-18T13:12:42.580Z,12.83
2019-01-18T13:15:41.323Z,14.60
2019-01-18T13:18:13.175Z,14.00
2019-01-18T13:20:44.976Z,9.77
2019-01-18T13:23:17.273Z,14.03
2019-01-18T13:25:49.282Z,16.47
2019-01-18T13:28:21.225Z,13.20
2019-01-18T13:30:55.196Z,16.07
2019-01-18T13:33:27.758Z,11.30
2019-01-18T13:36:01.075Z,11.23
2019-01-18T13:38:33.136Z,14.83
2019-01-18T13:41:06.035Z,10.30
2019-01-18T13:43:38.623Z,15.50
2019-01-18T13:46:12.045Z,14.10
2019-01-18T13:48:44.342Z,14.00
2019-01-18T13:51:19.991Z,15.03
2019-01-18T13:53:53.136Z,11.13
2019-01-18T13:56:25.362Z,11.07
2019-01-18T13:58:57.587Z,14.93
2019-01-18T14:01:29.519Z,13.17
2019-01-18T14:04:01.737Z,16.47
2019-01-18T14:06:33.806Z,17.33
2019-01-18T14:09:08.780Z,21.17
2019-01-18T14:11:40.972Z,16.17
2019-01-18T14:14:12.777Z,15.70
2019-01-18T14:16:44.915Z,13.87
2019-01-18T14:19:17.400Z,13.10
2019-01-18T14:21:49.313Z,13.23
2019-01-18T14:24:32.311Z,11.87
2019-01-18T14:27:07.266Z,16.10
2019-01-18T14:29:42.499Z,12.97
2019-01-18T14:32:23.429Z,13.03
2019-01-18T14:35:00.213Z,11.80
2019-01-18T14:37:35.862Z,14.93
2019-01-18T14:40:17.772Z,9.53
2019-01-18T14:42:50.522Z,11.97
2019-01-18T14:45:29.879Z,14.80
2019-01-18T14:48:01.671Z,12.27
2019-01-18T14:50:33.626Z,17.67
2019-01-18T14:53:05.660Z,20.00
2019-01-18T14:55:37.902Z,11.53
2019-01-18T14:58:13.561Z,13.37
2019-01-18T15:00:46.473Z,11.20
2019-01-18T15:03:18.521Z,16.27
2019-01-18T15:05:50.562Z,17.47
2019-01-18T15:08:24.272Z,12.73
2019-01-18T15:10:56.447Z,11.17
2019-01-18T15:13:28.458Z,11.37
2019-01-18T15:16:00.302Z,9.93
2019-01-18T15:18:32.734Z,13.50
2019-01-18T15:21:05.029Z,12.60
2019-01-18T15:23:36.965Z,14.77
2019-01-18T15:26:09.227Z,18.20
2019-01-18T15:28:41.211Z,12.80
2019-01-18T15:31:13.385Z,12.30
2019-01-18T15:33:46.109Z,14.17
2019-01-18T15:36:19.408Z,7.23
2019-01-18T15:38:51.479Z,17.37
2019-01-18T15:41:24.533Z,10.90
2019-01-18T15:43:57.097Z,10.43
2019-01-18T15:46:29.160Z,13.90
2019-01-18T15:49:01.289Z,9.67
2019-01-18T15:51:33.111Z,14.23
2019-01-18T15:54:05.362Z,15.37
2019-01-18T15:56:38.005Z,15.97
2019-01-18T15:59:09.953Z,13.43
2019-01-18T16:01:42.927Z,11.47
2019-01-18T16:04:14.608Z,12.03
2019-01-18T16:06:47.145Z,11.27
2019-01-18T16:09:19.309Z,17.30
2019-01-18T16:11:53.204Z,15.90
2019-01-18T16:14:25.587Z,19.33
2019-01-18T16:17:20.267Z,16.03
2019-01-18T16:19:54.339Z,19.37
2019-01-18T16:22:27.317Z,21.83
2019-01-18T16:25:00.183Z,23.30
2019-01-18T16:27:32.230Z,15.30
2019-01-18T16:30:04.106Z,17.33
2019-01-18T16:32:35.950Z,19.20
2019-01-18T16:35:09.683Z,19.87
2019-01-18T16:37:42.144Z,34.70
2019-01-18T16:40:26.888Z,26.40
2019-01-18T16:43:06.070Z,36.77
2019-01-18T16:45:38.592Z,37.83
2019-01-18T16:48:10.811Z,39.90
2019-01-18T16:50:43.192Z,55.13
2019-01-18T16:53:14.991Z,30.80
2019-01-18T16:55:46.675Z,31.90
2019-01-18T16:58:20.397Z,24.63
2019-01-18T17:00:54.957Z,22.77
2019-01-18T17:03:30.540Z,19.97
2019-01-18T17:06:01.310Z,25.17
2019-01-18T17:08:33.654Z,25.30
2019-01-18T17:11:07.002Z,23.30
2019-01-18T17:13:44.116Z,23.83
2019-01-18T17:16:16.607Z,15.57
2019-01-18T17:18:49.015Z,23.53
2019-01-18T17:21:20.912Z,23.67
2019-01-18T17:23:52.591Z,18.27
2019-01-18T17:26:24.438Z,19.13
2019-01-18T17:28:56.255Z,17.03
2019-01-18T17:31:28.157Z,22.10
2019-01-18T17:34:01.413Z,18.60
2019-01-18T17:36:55.133Z,22.27
2019-01-18T17:40:29.830Z,33.97
2019-01-18T17:43:29.604Z,24.73
2019-01-18T17:47:04.511Z,31.83
2019-01-18T17:50:40.354Z,31.73
2019-01-18T17:54:05.976Z,31.07
2019-01-18T17:57:29.809Z,11.50
2019-01-18T18:01:06.880Z,18.63
2019-01-18T18:04:33.081Z,24.37
2019-01-18T18:07:45.999Z,21.47
2019-01-18T18:11:31.785Z,26.93
2019-01-18T18:14:49.412Z,48.27
2019-01-18T18:17:56.453Z,26.23
2019-01-18T18:21:22.213Z,24.63
2019-01-18T18:24:33.166Z,62.57
2019-01-18T18:27:59.832Z,28.10
2019-01-18T18:31:16.737Z,30.43
2019-01-18T18:34:48.524Z,23.43
2019-01-18T18:38:06.846Z,21.80
2019-01-18T18:41:09.162Z,28.63
2019-01-18T18:44:42.622Z,20.77
2019-01-18T18:48:02.414Z,20.83
2019-01-18T18:51:34.216Z,19.07
2019-01-18T18:55:16.770Z,29.70
2019-01-18T18:58:49.989Z,21.83
2019-01-18T19:02:31.415Z,15.53
2019-01-18T19:06:07.184Z,13.23
2019-01-18T19:09:43.932Z,23.60
2019-01-18T19:12:46.139Z,21.00
2019-01-18T19:16:19.054Z,29.13
2019-01-18T19:19:44.177Z,13.60
2019-01-18T19:23:04.610Z,28.10
2019-01-18T19:26:20.306Z,15.63
2019-01-18T19:29:55.989Z,19.80
2019-01-18T19:33:22.851Z,13.57
2019-01-18T19:36:59.960Z,19.53
2019-01-18T19:40:26.584Z,20.37
2019-01-18T19:44:09.381Z,19.03
2019-01-18T19:47:16.124Z,16.73
2019-01-18T19:50:33.273Z,22.20
2019-01-18T19:54:11.570Z,35.37
2019-01-18T19:57:57.948Z,26.03
2019-01-18T20:01:06.000Z,16.83
2019-01-18T20:04:19.347Z,11.70
2019-01-18T20:08:04.623Z,16.87
2019-01-18T20:11:22.415Z,17.57
2019-01-18T20:15:09.061Z,20.30
2019-01-18T20:18:59.252Z,15.93
2019-01-18T20:22:29.487Z,17.23
2019-01-18T20:26:04.000Z,15.27
2019-01-18T20:29:28.036Z,15.47
2019-01-18T20:32:46.229Z,14.47
2019-01-18T20:36:20.639Z,12.60
2019-01-18T20:39:53.058Z,15.20
2019-01-18T20:43:43.923Z,16.42
2019-01-18T20:46:55.469Z,38.05
2019-01-18T20:50:24.199Z,36.20
2019-01-18T20:53:50.263Z,30.43
2019-01-18T20:56:57.281Z,12.65
2019-01-18T21:00:23.133Z,11.50
2019-01-18T21:04:00.776Z,13.72
2019-01-18T21:07:22.024Z,20.90
2019-01-18T21:10:51.794Z,35.98
2019-01-18T21:14:10.450Z,12.82
2019-01-18T21:17:35.398Z,21.23
2019-01-18T21:21:05.815Z,19.52
2019-01-18T21:24:22.430Z,18.02
2019-01-18T21:27:18.053Z,22.37
2019-01-18T21:30:35.775Z,21.00
2019-01-18T21:34:07.628Z,18.80
2019-01-18T21:37:41.775Z,16.05
2019-01-18T21:41:12.652Z,19.57
2019-01-18T21:44:42.876Z,24.27
2019-01-18T21:48:19.315Z,24.87
2019-01-18T21:51:52.390Z,13.28
2019-01-18T21:55:20.077Z,17.95
2019-01-18T21:58:55.313Z,16.65
2019-01-18T22:02:47.060Z,13.95
2019-01-18T22:05:53.264Z,22.87
2019-01-18T22:09:15.340Z,25.72
2019-01-18T22:12:55.727Z,24.27
2019-01-18T22:16:27.862Z,28.17
2019-01-18T22:20:08.777Z,29.07
2019-01-18T22:23:14.479Z,49.55
2019-01-18T22:26:32.260Z,22.93
2019-01-18T22:29:39.411Z,12.53
2019-01-18T22:33:10.965Z,13.50
2019-01-18T22:36:33.718Z,18.95
2019-01-18T22:39:43.094Z,19.15
2019-01-18T22:42:41.524Z,21.20
2019-01-18T22:45:48.659Z,15.23
2019-01-18T22:49:28.844Z,30.48
2019-01-18T22:52:55.462Z,23.90
2019-01-18T22:56:04.626Z,18.02
2019-01-18T22:59:39.722Z,16.42
2019-01-18T23:03:18.262Z,15.60
2019-01-18T23:07:00.134Z,10.55
2019-01-18T23:10:33.352Z,7.78
2019-01-18T23:14:11.208Z,14.58
2019-01-18T23:17:51.170Z,8.35
2019-01-18T23:21:22.692Z,9.60
2019-01-18T23:24:33.367Z,9.23
2019-01-18T23:28:21.958Z,8.50
2019-01-18T23:31:32.524Z,18.10
2019-01-18T23:34:31.207Z,17.92
2019-01-18T23:37:57.498Z,8.63
2019-01-18T23:41:26.660Z,7.58
2019-01-18T23:44:56.537Z,12.37
2019-01-18T23:48:14.542Z,8.83
2019-01-18T23:52:07.094Z,13.90
2019-01-18T23:55:35.144Z,13.48
2019-01-18T23:58:54.993Z,11.08
